createdAt,value
2023-05-18T00:01:32.551Z,3.42
2023-05-18T00:05:34.888Z,3.20
2023-05-18T00:09:37.474Z,3.40
2023-05-18T00:13:39.629Z,3.33
2023-05-18T00:17:42.632Z,3.25
2023-05-18T00:21:49.114Z,3.00
2023-05-18T00:25:51.205Z,3.20
2023-05-18T00:29:53.244Z,3.58
2023-05-18T00:33:55.320Z,3.25
2023-05-18T00:37:57.400Z,3.22
2023-05-18T00:42:00.181Z,3.08
2023-05-18T00:46:02.362Z,3.35
2023-05-18T00:50:05.237Z,3.80
2023-05-18T00:54:09.387Z,3.60
2023-05-18T00:58:12.529Z,4.85
2023-05-18T01:02:15.007Z,4.10
2023-05-18T01:06:18.483Z,3.67
2023-05-18T01:10:20.885Z,3.63
2023-05-18T01:15:08.838Z,4.43
2023-05-18T01:19:41.847Z,4.30
2023-05-18T01:24:03.716Z,4.35
2023-05-18T01:28:10.191Z,4.35
2023-05-18T01:32:20.617Z,4.40
2023-05-18T01:36:23.384Z,4.30
2023-05-18T01:40:33.334Z,4.25
2023-05-18T01:44:53.903Z,5.13
2023-05-18T01:49:02.068Z,5.05
2023-05-18T01:53:20.035Z,4.88
2023-05-18T01:57:25.881Z,4.78
2023-05-18T02:01:28.180Z,4.65
2023-05-18T02:05:30.662Z,4.57
2023-05-18T02:09:33.339Z,4.80
2023-05-18T02:13:36.104Z,4.80
2023-05-18T02:17:39.148Z,5.35
2023-05-18T02:21:45.541Z,4.78
2023-05-18T02:25:47.639Z,5.00
2023-05-18T02:29:49.743Z,5.10
2023-05-18T02:33:51.825Z,4.85
2023-05-18T02:37:54.402Z,5.13
2023-05-18T02:41:56.484Z,5.00
2023-05-18T02:45:58.604Z,5.28
2023-05-18T02:50:01.111Z,5.15
2023-05-18T02:54:06.050Z,5.03
2023-05-18T02:58:13.713Z,5.15
2023-05-18T03:02:30.319Z,5.07
2023-05-18T03:06:32.540Z,5.07
2023-05-18T03:10:34.720Z,5.32
2023-05-18T03:14:37.374Z,5.65
2023-05-18T03:18:40.131Z,4.75
2023-05-18T03:22:43.738Z,5.15
2023-05-18T03:26:46.384Z,5.15
2023-05-18T03:30:48.948Z,5.90
2023-05-18T03:34:53.494Z,5.97
2023-05-18T03:38:57.037Z,6.20
2023-05-18T03:43:00.063Z,5.75
2023-05-18T03:47:02.760Z,6.38
2023-05-18T03:51:05.277Z,5.88
2023-05-18T03:55:08.780Z,5.40
2023-05-18T03:59:10.890Z,5.30
2023-05-18T04:03:14.822Z,5.60
2023-05-18T04:07:17.500Z,5.00
2023-05-18T04:11:19.772Z,5.35
2023-05-18T04:15:22.130Z,5.82
2023-05-18T04:19:24.812Z,5.28
2023-05-18T04:23:28.751Z,5.55
2023-05-18T04:27:31.249Z,5.55
2023-05-18T04:31:35.698Z,5.00
2023-05-18T04:35:37.853Z,5.20
2023-05-18T04:39:42.074Z,4.88
2023-05-18T04:43:47.505Z,5.15
2023-05-18T04:47:54.652Z,5.27
2023-05-18T04:51:59.038Z,5.18
2023-05-18T04:56:02.449Z,5.82
2023-05-18T05:00:05.975Z,5.47
2023-05-18T05:04:09.191Z,4.43
2023-05-18T05:08:11.999Z,4.93
2023-05-18T05:12:14.970Z,4.32
2023-05-18T05:16:17.232Z,4.47
2023-05-18T05:20:20.128Z,4.28
2023-05-18T05:24:22.472Z,3.50
2023-05-18T05:28:24.635Z,4.35
2023-05-18T05:32:27.092Z,4.65
2023-05-18T05:36:31.891Z,3.93
2023-05-18T05:40:34.455Z,3.38
2023-05-18T05:44:37.403Z,3.05
2023-05-18T05:48:40.255Z,3.90
2023-05-18T05:52:42.494Z,3.55
2023-05-18T05:56:45.998Z,3.15
2023-05-18T06:00:48.821Z,3.05
2023-05-18T06:04:51.228Z,3.00
2023-05-18T06:08:53.802Z,3.28
2023-05-18T06:12:56.250Z,2.92
2023-05-18T06:17:04.607Z,2.78
2023-05-18T06:21:07.013Z,3.20
2023-05-18T06:25:10.879Z,3.30
2023-05-18T06:29:33.575Z,3.22
2023-05-18T06:33:38.625Z,2.90
2023-05-18T06:37:40.900Z,2.78
2023-05-18T06:41:45.722Z,2.95
2023-05-18T06:45:56.873Z,3.00
2023-05-18T06:50:19.423Z,2.95
2023-05-18T06:54:22.223Z,3.33
2023-05-18T06:58:28.929Z,3.13
2023-05-18T07:02:36.559Z,3.28
2023-05-18T07:06:39.061Z,3.70
2023-05-18T07:10:41.254Z,3.33
2023-05-18T07:14:43.556Z,3.25
2023-05-18T07:18:45.790Z,3.80
2023-05-18T07:22:48.023Z,3.63
2023-05-18T07:26:50.217Z,3.55
2023-05-18T07:30:52.483Z,3.55
2023-05-18T07:34:54.770Z,3.15
2023-05-18T07:39:00.169Z,3.63
2023-05-18T07:43:02.434Z,3.97
2023-05-18T07:47:05.054Z,3.78
2023-05-18T07:51:07.449Z,3.55
2023-05-18T07:55:09.794Z,3.38
2023-05-18T07:59:16.410Z,3.63
2023-05-18T08:03:18.970Z,4.10
2023-05-18T08:07:21.628Z,4.45
2023-05-18T08:11:23.909Z,3.53
2023-05-18T08:15:25.972Z,3.38
2023-05-18T08:19:28.086Z,3.85
2023-05-18T08:23:30.422Z,4.35
2023-05-18T08:27:32.615Z,4.05
2023-05-18T08:31:34.696Z,4.05
2023-05-18T08:35:36.883Z,3.95
2023-05-18T08:39:40.535Z,3.75
2023-05-18T08:43:46.972Z,3.53
2023-05-18T08:47:51.083Z,3.80
2023-05-18T08:52:00.698Z,4.30
2023-05-18T08:56:03.449Z,4.30
2023-05-18T09:00:06.407Z,4.15
2023-05-18T09:04:09.669Z,3.78
2023-05-18T09:08:12.613Z,4.10
2023-05-18T09:12:17.281Z,3.90
2023-05-18T09:16:19.849Z,3.72
2023-05-18T09:20:22.391Z,4.10
2023-05-18T09:24:25.134Z,4.05
2023-05-18T09:28:33.312Z,2.70
2023-05-18T09:32:36.786Z,3.33
2023-05-18T09:36:39.134Z,3.20
2023-05-18T09:40:45.906Z,2.40
2023-05-18T09:44:48.081Z,2.72
2023-05-18T09:48:55.328Z,2.25
2023-05-18T09:52:57.794Z,2.28
2023-05-18T09:57:10.153Z,3.00
2023-05-18T10:01:13.506Z,3.57
2023-05-18T10:05:23.737Z,3.20
2023-05-18T10:09:25.890Z,4.13
2023-05-18T10:13:31.720Z,4.72
2023-05-18T10:17:34.135Z,2.85
2023-05-18T10:21:38.155Z,2.70
2023-05-18T10:29:46.609Z,2.60
2023-05-18T10:33:51.413Z,2.42
2023-05-18T10:37:55.785Z,2.00
2023-05-18T10:41:59.720Z,2.60
2023-05-18T10:46:02.762Z,2.80
2023-05-18T10:50:06.678Z,3.35
2023-05-18T10:54:13.937Z,3.83
2023-05-18T10:58:18.665Z,3.60
2023-05-18T11:02:23.009Z,4.22
2023-05-18T11:06:25.230Z,2.90
2023-05-18T11:10:40.158Z,2.35
2023-05-18T11:14:51.080Z,2.42
2023-05-18T11:18:53.105Z,2.25
2023-05-18T11:22:58.420Z,2.03
2023-05-18T11:27:24.778Z,2.40
2023-05-18T11:31:43.879Z,2.20
2023-05-18T11:36:07.654Z,2.05
2023-05-18T11:40:30.655Z,1.83
2023-05-18T11:44:33.621Z,2.05
2023-05-18T11:48:44.060Z,2.50
2023-05-18T11:52:48.063Z,2.08
2023-05-18T11:56:52.507Z,2.40
2023-05-18T12:00:56.332Z,2.00
2023-05-18T12:05:03.105Z,1.70
2023-05-18T12:09:07.914Z,2.53
2023-05-18T12:13:10.187Z,2.05
2023-05-18T12:17:12.426Z,2.40
2023-05-18T12:21:14.808Z,2.88
2023-05-18T12:25:16.938Z,2.40
2023-05-18T12:29:21.870Z,2.47
2023-05-18T12:33:23.976Z,2.20
2023-05-18T12:37:34.297Z,2.47
2023-05-18T12:45:45.614Z,2.97
2023-05-18T12:49:50.811Z,2.40
2023-05-18T12:53:52.978Z,2.67
2023-05-18T12:58:03.633Z,2.50
2023-05-18T13:02:06.664Z,2.35
2023-05-18T13:06:12.018Z,2.30
2023-05-18T13:10:20.286Z,2.88
2023-05-18T13:14:23.800Z,2.70
2023-05-18T13:18:27.451Z,2.85
2023-05-18T13:22:29.836Z,2.80
2023-05-18T13:26:32.052Z,2.50
2023-05-18T13:30:41.568Z,3.30
2023-05-18T13:34:44.168Z,3.70
2023-05-18T13:38:46.194Z,4.13
2023-05-18T13:42:48.391Z,3.63
2023-05-18T13:46:50.468Z,3.88
2023-05-18T13:50:52.601Z,4.38
2023-05-18T13:54:54.955Z,6.35
2023-05-18T13:58:57.090Z,7.57
2023-05-18T14:02:59.536Z,8.80
2023-05-18T14:07:02.547Z,8.07
2023-05-18T14:11:04.580Z,9.27
2023-05-18T14:15:07.284Z,7.50
2023-05-18T14:19:10.685Z,8.75
2023-05-18T14:27:15.605Z,7.85
2023-05-18T14:31:17.684Z,7.72
2023-05-18T14:35:19.768Z,9.32
2023-05-18T14:39:22.007Z,7.28
2023-05-18T14:43:23.956Z,6.80
2023-05-18T14:47:26.148Z,6.97
2023-05-18T14:51:31.075Z,6.53
2023-05-18T14:55:35.303Z,6.07
2023-05-18T14:59:37.376Z,6.35
2023-05-18T15:03:40.001Z,4.82
2023-05-18T15:07:42.187Z,5.60
2023-05-18T15:11:44.561Z,5.57
2023-05-18T15:15:46.689Z,6.72
2023-05-18T15:19:48.937Z,6.55
2023-05-18T15:23:51.146Z,5.78
2023-05-18T15:27:53.996Z,5.70
2023-05-18T15:31:56.186Z,6.57
2023-05-18T15:35:59.172Z,7.50
2023-05-18T15:40:01.674Z,6.85
2023-05-18T15:44:04.167Z,7.60
2023-05-18T15:48:07.531Z,9.45
2023-05-18T15:52:10.263Z,9.43
2023-05-18T15:56:12.879Z,9.75
2023-05-18T16:00:15.568Z,9.77
2023-05-18T16:04:17.879Z,10.35
2023-05-18T16:08:20.751Z,9.18
2023-05-18T16:12:22.715Z,8.43
2023-05-18T16:16:26.070Z,8.05
2023-05-18T16:20:28.414Z,7.38
2023-05-18T16:24:31.565Z,7.00
2023-05-18T16:28:34.414Z,4.47
2023-05-18T16:32:37.213Z,6.50
2023-05-18T16:36:39.329Z,5.75
2023-05-18T16:40:41.483Z,6.65
2023-05-18T16:44:43.547Z,6.05
2023-05-18T16:48:46.217Z,7.00
2023-05-18T16:52:48.332Z,8.35
2023-05-18T16:56:51.207Z,10.80
2023-05-18T17:00:56.367Z,7.65
2023-05-18T17:04:59.360Z,6.28
2023-05-18T17:09:03.559Z,6.22
2023-05-18T17:13:07.765Z,5.38
2023-05-18T17:17:09.928Z,4.32
2023-05-18T17:21:12.940Z,3.75
2023-05-18T17:25:15.043Z,2.58
2023-05-18T17:29:18.509Z,2.40
2023-05-18T17:33:22.371Z,2.17
2023-05-18T17:37:24.414Z,2.10
2023-05-18T17:41:26.612Z,2.90
2023-05-18T17:45:28.979Z,3.20
2023-05-18T17:49:32.562Z,2.75
2023-05-18T17:53:34.744Z,3.78
2023-05-18T17:57:37.037Z,4.22
2023-05-18T18:01:39.511Z,3.88
2023-05-18T18:05:41.856Z,4.25
2023-05-18T18:09:43.887Z,4.65
2023-05-18T18:13:46.304Z,4.57
2023-05-18T18:17:48.643Z,4.65
2023-05-18T18:21:51.027Z,3.95
2023-05-18T18:25:53.412Z,4.80
2023-05-18T18:29:56.629Z,4.72
2023-05-18T18:33:58.926Z,4.33
2023-05-18T18:38:01.162Z,4.80
2023-05-18T18:42:03.572Z,4.50
2023-05-18T18:46:06.227Z,5.13
2023-05-18T18:50:09.169Z,4.65
2023-05-18T18:54:13.021Z,5.50
2023-05-18T18:58:19.330Z,5.50
2023-05-18T19:02:23.829Z,5.43
2023-05-18T19:06:27.403Z,5.78
2023-05-18T19:10:30.590Z,6.70
2023-05-18T19:14:33.298Z,5.95
2023-05-18T19:18:36.142Z,5.60
2023-05-18T19:22:38.896Z,6.95
2023-05-18T19:26:41.123Z,5.55
2023-05-18T19:30:44.363Z,6.13
2023-05-18T19:34:46.527Z,5.93
2023-05-18T19:38:52.857Z,5.63
2023-05-18T19:42:56.208Z,5.40
2023-05-18T19:46:59.887Z,5.95
2023-05-18T19:51:04.500Z,5.83
2023-05-18T19:55:07.387Z,4.93
2023-05-18T19:59:09.498Z,5.15
2023-05-18T20:03:11.579Z,4.65
2023-05-18T20:07:13.863Z,5.55
2023-05-18T20:11:18.760Z,4.47
2023-05-18T20:15:20.887Z,4.30
2023-05-18T20:19:23.533Z,4.88
2023-05-18T20:23:26.053Z,5.25
2023-05-18T20:27:28.410Z,4.43
2023-05-18T20:31:30.553Z,5.07
2023-05-18T20:35:34.141Z,5.20
2023-05-18T20:39:37.809Z,4.87
2023-05-18T20:43:39.989Z,4.53
2023-05-18T20:47:42.784Z,5.07
2023-05-18T20:51:45.354Z,3.95
2023-05-18T20:55:47.726Z,4.05
2023-05-18T20:59:50.398Z,4.10
2023-05-18T21:03:52.619Z,4.53
2023-05-18T21:07:55.066Z,3.95
2023-05-18T21:11:57.590Z,4.40
2023-05-18T21:15:59.813Z,4.70
2023-05-18T21:20:02.177Z,4.53
2023-05-18T21:24:04.523Z,4.15
2023-05-18T21:28:07.373Z,4.35
2023-05-18T21:32:09.799Z,4.45
2023-05-18T21:36:12.321Z,3.45
2023-05-18T21:40:14.500Z,4.75
2023-05-18T21:44:16.608Z,3.95
2023-05-18T21:48:18.794Z,4.07
2023-05-18T21:52:21.136Z,4.28
2023-05-18T21:56:24.301Z,3.55
2023-05-18T22:00:27.253Z,3.50
2023-05-18T22:04:29.662Z,3.28
2023-05-18T22:08:33.144Z,3.70
2023-05-18T22:12:37.565Z,3.70
2023-05-18T22:20:41.781Z,3.20
2023-05-18T22:24:45.093Z,3.50
2023-05-18T22:28:47.616Z,3.88
2023-05-18T22:32:50.864Z,3.78
2023-05-18T22:36:52.984Z,3.67
2023-05-18T22:40:55.370Z,2.90
2023-05-18T22:44:57.497Z,3.25
2023-05-18T22:48:59.581Z,4.05
2023-05-18T22:53:02.384Z,3.97
2023-05-18T22:57:04.706Z,3.60
2023-05-18T23:01:06.736Z,3.22
2023-05-18T23:05:15.410Z,3.83
2023-05-18T23:09:20.254Z,3.53
2023-05-18T23:13:23.243Z,3.45
2023-05-18T23:17:26.693Z,3.97
2023-05-18T23:21:29.144Z,3.43
2023-05-18T23:25:31.406Z,4.10
2023-05-18T23:29:33.521Z,3.55
2023-05-18T23:33:35.995Z,3.17
2023-05-18T23:37:41.763Z,3.45
2023-05-18T23:41:44.360Z,3.53
2023-05-18T23:45:46.890Z,3.42
2023-05-18T23:49:49.480Z,3.47
2023-05-18T23:53:52.688Z,3.33
2023-05-18T23:57:56.178Z,3.50
